SBOSBO YUL / CYUL
Speedbird OnlineSpeedbird Online YUL / CYUL

Montreal / Pierre Elliott Trudeau International Airport
17:47 3.8°C

Location Montreal, Canada
Latitude: 45.4706001282
Longitude: -73.7407989502
Web Airport Website | Wikipedia
Altitude 36 Meter / 118 Feet
Distance 5,250 KM / 3,262 Miles
from London.
Time Zone UTC -5 hours (America/Toronto)
Codes IATA: YUL
ICAO: CYUL
Currency £1 equals CAD 1.62
Runways
RunwayLength (m)Surface
06L3353Asphalt
06R2926Asphalt
102134Asphalt
24L2926Asphalt
24R3353Asphalt
282134Asphalt
Radio
TypeDescriptionFrequency
APRONMontreal Apron122.075
ARRMontreal Terminal Arrivals118.9
ARRMontreal Terminal126.9
ATISFrench ATIS127.5
ATISEnglish ATIS133.7
CLNC DELMontreal Clearance125.6
DEPMontreal Terminal Departures118.9
GNDMontreal Ground121.9
RCOQuebec Radio123.55
TWRMontreal Tower119.9
VFR ADVMontreal Terminal134.15
Live ATC
METAR CYUL 081400Z 26009KT 15SM FEW040 OVC065 02/M02 A3007 RMK SC2SC6 SLP187
TAF TAF CYUL 081440Z 0815/0912 26010KT P6SM FEW020 BKN040 BECMG 0815/0817 26012G22KT FM082000 26012G22KT P6SM BKN050 BECMG 0821/0823 26008KT BECMG 0907/0909 05008KT RMK NXT FCST BY 081800Z
Weather As Of 08 Feb 2023 16:50
Description Few clouds
Wind 30 km/h from West (260°)
Cloud Cover 20%
Precipitation Rain: none, Snow: none
Sunrise 07:07
Sunset 17:10
Lounges National Bank Lounge , International Departures
Rotations During the last 90 days there were
74 flights from LHR
75 flights to LHR



Support Speedbird Online

© 2017-2023 Speedbird Online